Time;durP1;ratioP1;P1;durP2;ratioP2;P2;SDS_P1;SDS_P2;PMS_P1;PMS_P2;Temp;Humidity;BMP_temperature;BMP_pressure;BME280_temperature;BME280_humidity;BME280_pressure;Samples;Min_cycle;Max_cycle;Signal;HPM_P1;HPM_P2
2022/12/24 00:01:42;;;;;;;44.47;22.25;;;;;;;1.53;100.00;96807.66;5006166;28;20077;-60
2022/12/24 00:04:08;;;;;;;52.08;23.67;;;;;;;1.51;100.00;96812.63;5008206;28;20049;-56
2022/12/24 00:06:35;;;;;;;43.90;22.35;;;;;;;1.61;100.00;96813.44;5007509;28;20575;-56
2022/12/24 00:09:02;;;;;;;49.08;20.63;;;;;;;1.56;100.00;96828.84;5006449;28;20042;-58
2022/12/24 00:11:29;;;;;;;46.60;20.92;;;;;;;1.56;100.00;96837.03;5007782;28;20083;-60
2022/12/24 00:13:56;;;;;;;47.97;25.30;;;;;;;1.54;100.00;96855.66;5007645;28;20058;-60
2022/12/24 00:16:22;;;;;;;48.90;22.75;;;;;;;0.98;100.00;96754.72;5007706;28;20061;-55
2022/12/24 00:18:49;;;;;;;44.38;22.40;;;;;;;1.52;100.00;96846.97;5007666;28;20058;-60
2022/12/24 00:21:16;;;;;;;64.72;29.05;;;;;;;0.75;100.00;96701.41;5007618;28;20097;-56
2022/12/24 00:23:43;;;;;;;49.42;22.85;;;;;;;1.13;100.00;96787.03;5006075;28;20590;-60
2022/12/24 00:26:10;;;;;;;62.20;26.70;;;;;;;1.51;100.00;96839.13;5005882;28;20111;-57
2022/12/24 00:28:37;;;;;;;65.50;32.10;;;;;;;1.48;100.00;96862.41;5007234;28;20089;-56
2022/12/24 00:31:15;;;;;;;51.92;25.23;;;;;;;1.44;100.00;96839.56;5007314;28;20497;-56
2022/12/24 00:33:42;;;;;;;45.40;20.77;;;;;;;1.46;100.00;96859.16;5007102;28;20049;-60
2022/12/24 00:36:09;;;;;;;33.72;15.90;;;;;;;1.37;100.00;96833.78;5005345;28;20611;-56
2022/12/24 00:38:37;;;;;;;42.20;19.38;;;;;;;1.37;100.00;96825.59;5007278;28;20053;-56
2022/12/24 00:41:23;;;;;;;25.10;12.23;;;;;;;1.35;100.00;96816.94;5005229;28;20053;-56
2022/12/24 00:43:53;;;;;;;20.00;9.35;;;;;;;1.36;100.00;96823.16;5006897;28;20054;-59
2022/12/24 00:46:20;;;;;;;32.97;13.95;;;;;;;1.28;100.00;96808.38;5005909;28;20104;-57
2022/12/24 00:48:47;;;;;;;33.03;13.63;;;;;;;1.46;100.00;96820.97;4994714;28;20062;-57
2022/12/24 00:51:15;;;;;;;18.92;8.65;;;;;;;1.47;100.00;96817.09;5005711;28;20092;-56
2022/12/24 00:53:42;;;;;;;19.63;8.18;;;;;;;1.39;100.00;96815.16;5007177;28;20046;-56
2022/12/24 00:56:09;;;;;;;13.38;6.10;;;;;;;1.47;100.00;96819.84;5005323;28;20085;-56
2022/12/24 00:58:36;;;;;;;14.27;7.15;;;;;;;1.08;100.00;96748.97;4996617;28;20069;-59
2022/12/24 01:01:03;;;;;;;18.50;9.50;;;;;;;1.62;100.00;96809.59;4985994;28;20059;-59
2022/12/24 01:03:35;;;;;;;20.15;8.93;;;;;;;1.56;100.00;96793.34;4987349;28;20073;-56
2022/12/24 01:06:06;;;;;;;14.73;7.07;;;;;;;1.79;100.00;96806.91;4987419;28;20061;-60
2022/12/24 01:08:34;;;;;;;17.73;7.80;;;;;;;1.81;100.00;96804.63;4985917;28;20588;-60
2022/12/24 01:11:02;;;;;;;26.48;10.75;;;;;;;1.86;100.00;96793.56;4987131;28;20470;-60
2022/12/24 01:13:29;;;;;;;21.90;10.80;;;;;;;1.85;100.00;96800.16;4987103;28;20121;-56
2022/12/24 01:15:55;;;;;;;18.08;10.30;;;;;;;1.87;100.00;96797.88;4986663;28;20082;-56
2022/12/24 01:18:23;;;;;;;22.77;11.00;;;;;;;1.84;100.00;96787.59;4986800;28;20081;-57
2022/12/24 01:21:00;;;;;;;27.17;11.55;;;;;;;1.70;100.00;96789.69;4986799;28;20105;-59
2022/12/24 01:23:28;;;;;;;24.70;11.90;;;;;;;1.63;100.00;96792.09;4985645;28;20830;-60
2022/12/24 01:25:59;;;;;;;27.98;14.30;;;;;;;1.58;100.00;96769.28;4986695;28;20133;-59
2022/12/24 01:28:26;;;;;;;26.17;12.82;;;;;;;1.21;100.00;96726.25;4986682;28;20090;-56
2022/12/24 01:30:52;;;;;;;27.55;13.77;;;;;;;1.42;100.00;96770.88;4985247;28;20403;-55
2022/12/24 01:33:19;;;;;;;28.35;13.65;;;;;;;1.52;100.00;96789.69;4984988;28;20631;-59
2022/12/24 01:35:46;;;;;;;28.33;13.88;;;;;;;1.04;100.00;96715.28;4986151;28;20058;-59
2022/12/24 01:38:14;;;;;;;30.10;13.90;;;;;;;1.56;100.00;96789.84;4986616;28;20263;-60
2022/12/24 01:43:30;;;;;;;33.67;16.95;;;;;;;1.40;100.00;96794.97;4986556;28;20062;-59
2022/12/24 01:46:19;;;;;;;35.35;16.65;;;;;;;0.95;100.00;96766.25;4986551;28;20489;-56
2022/12/24 01:48:51;;;;;;;36.78;18.02;;;;;;;0.90;100.00;96730.94;4985036;28;20734;-60
2022/12/24 01:51:44;;;;;;;39.50;20.65;;;;;;;1.31;100.00;96796.84;4986313;28;20081;-56
2022/12/24 01:54:17;;;;;;;33.10;16.80;;;;;;;1.18;100.00;96789.59;4986580;28;20062;-56
2022/12/24 01:56:49;;;;;;;;;;;;;;;1.21;100.00;96791.69;4986820;28;20109;-59
2022/12/24 01:59:19;;;;;;;55.22;29.88;;;;;;;0.96;100.00;96751.53;5002047;28;20019;-56
2022/12/24 02:01:48;;;;;;;35.80;17.77;;;;;;;1.25;100.00;96791.84;5005923;28;20108;-59
2022/12/24 02:04:47;;;;;;;30.55;13.85;;;;;;;1.29;100.00;96795.56;5005616;28;20060;-55
2022/12/24 02:07:14;;;;;;;25.13;11.50;;;;;;;0.55;100.00;96672.03;5005138;28;20078;-60
2022/12/24 02:09:41;;;;;;;21.58;9.23;;;;;;;1.25;100.00;96890.03;5004388;28;20129;-56
2022/12/24 02:12:08;;;;;;;22.40;9.50;;;;;;;1.18;100.00;96765.06;5003960;28;20190;-60
2022/12/24 02:14:36;;;;;;;22.48;10.32;;;;;;;1.42;100.00;96792.69;5005588;28;20070;-55
2022/12/24 02:17:11;;;;;;;21.88;12.40;;;;;;;1.35;100.00;96783.38;5005432;28;20108;-59
2022/12/24 02:19:56;;;;;;;19.73;9.38;;;;;;;1.37;100.00;96779.22;5004199;28;20144;-56
2022/12/24 02:22:52;;;;;;;17.90;9.02;;;;;;;1.29;100.00;96782.75;5003750;28;20042;-59
2022/12/24 02:25:43;;;;;;;15.60;7.68;;;;;;;1.35;100.00;96795.09;5003924;28;20053;-56
2022/12/24 02:28:32;;;;;;;18.88;9.05;;;;;;;1.29;100.00;96777.28;5004023;28;20123;-57
2022/12/24 02:31:04;;;;;;;15.93;9.32;;;;;;;1.41;100.00;96807.47;5005167;28;20131;-60
2022/12/24 02:34:11;;;;;;;16.02;8.43;;;;;;;1.34;100.00;96768.13;5005202;28;20050;-56
2022/12/24 02:36:48;;;;;;;17.67;7.68;;;;;;;1.53;100.00;96785.03;5001803;28;20053;-60
2022/12/24 02:39:26;;;;;;;12.68;7.38;;;;;;;0.82;100.00;96671.75;5004430;28;20081;-56
2022/12/24 02:42:05;;;;;;;28.40;13.77;;;;;;;1.13;100.00;96735.19;5004556;28;20123;-60
2022/12/24 02:44:49;;;;;;;31.27;15.02;;;;;;;1.42;100.00;96798.16;5004954;28;20080;-56
2022/12/24 02:47:19;;;;;;;26.17;12.73;;;;;;;1.28;100.00;96797.47;5004608;28;20046;-56
2022/12/24 02:49:47;;;;;;;26.52;12.18;;;;;;;0.67;100.00;96739.53;5005197;28;20045;-57
2022/12/24 02:52:33;;;;;;;28.92;14.68;;;;;;;1.01;100.00;96786.81;5004858;28;20501;-56
2022/12/24 02:55:04;;;;;;;25.95;12.88;;;;;;;1.01;100.00;96792.25;5003785;28;20104;-57
2022/12/24 02:57:46;;;;;;;25.92;11.68;;;;;;;1.03;100.00;96784.56;5004136;28;20350;-56
2022/12/24 03:00:17;;;;;;;26.42;11.45;;;;;;;0.82;100.00;96745.34;4983727;28;20564;-60
2022/12/24 03:02:46;;;;;;;34.90;12.98;;;;;;;1.16;100.00;96789.13;4985167;28;20062;-60
2022/12/24 03:05:42;;;;;;;21.60;10.70;;;;;;;1.18;100.00;96789.59;4984823;28;20137;-60
2022/12/24 03:08:24;;;;;;;32.05;13.75;;;;;;;1.17;100.00;96782.53;4983930;28;20089;-60
2022/12/24 03:10:56;;;;;;;36.40;15.40;;;;;;;1.11;100.00;96788.44;4984807;28;20505;-56
2022/12/24 03:13:25;;;;;;;95.75;36.80;;;;;;;0.93;100.00;96771.22;4984840;28;20525;-60
2022/12/24 03:15:52;;;;;;;58.58;26.40;;;;;;;0.93;100.00;96763.03;4984702;28;20051;-59
2022/12/24 03:18:23;;;;;;;47.78;20.58;;;;;;;1.10;100.00;96784.94;4984902;28;20054;-56
2022/12/24 03:21:00;;;;;;;48.58;21.50;;;;;;;0.90;100.00;96790.94;4983417;28;20526;-58
2022/12/24 03:23:27;;;;;;;48.45;21.63;;;;;;;1.02;100.00;96782.97;4984683;28;20058;-56
2022/12/24 03:25:54;;;;;;;66.75;27.42;;;;;;;1.19;100.00;96787.66;4987211;28;20058;-60
2022/12/24 03:28:25;;;;;;;60.33;26.08;;;;;;;0.94;100.00;96742.03;4988504;28;20058;-56
2022/12/24 03:30:52;;;;;;;55.10;24.13;;;;;;;1.19;100.00;96804.84;4988542;28;20086;-60
2022/12/24 03:33:20;;;;;;;56.63;26.25;;;;;;;1.17;100.00;96880.72;4988577;28;20089;-56
2022/12/24 03:35:46;;;;;;;66.68;30.55;;;;;;;1.16;100.00;96800.03;4988104;28;20081;-56
2022/12/24 03:38:13;;;;;;;193.35;69.82;;;;;;;1.13;100.00;96795.19;4988862;28;20516;-57
2022/12/24 03:40:40;;;;;;;179.75;66.45;;;;;;;0.93;100.00;96768.50;4988376;28;20066;-56
2022/12/24 03:43:06;;;;;;;147.75;53.00;;;;;;;1.08;100.00;96784.44;4988106;28;20058;-57
2022/12/24 03:45:33;;;;;;;115.00;48.35;;;;;;;1.19;100.00;96779.47;4988706;28;20050;-58
2022/12/24 03:47:59;;;;;;;55.47;26.27;;;;;;;1.14;100.00;96785.88;4987859;28;20050;-59
2022/12/24 03:50:26;;;;;;;31.42;15.85;;;;;;;1.25;100.00;96775.47;4988598;28;20054;-59
2022/12/24 03:52:54;;;;;;;36.08;16.00;;;;;;;1.19;100.00;96783.03;4988503;28;20050;-60
2022/12/24 03:55:21;;;;;;;33.38;15.80;;;;;;;1.13;100.00;96799.84;4986294;28;20101;-56
2022/12/24 03:57:48;;;;;;;31.30;13.88;;;;;;;1.10;100.00;96768.56;4991402;28;20298;-56
2022/12/24 04:00:15;;;;;;;18.60;8.48;;;;;;;1.19;100.00;96777.56;5006449;28;20141;-56
2022/12/24 04:02:42;;;;;;;23.48;10.48;;;;;;;0.04;100.00;96587.41;5007979;28;20141;-56
2022/12/24 04:05:16;;;;;;;31.50;13.82;;;;;;;0.84;100.00;96797.66;5007503;28;20376;-60
2022/12/24 04:07:44;;;;;;;36.63;17.02;;;;;;;0.54;100.00;96782.09;5005873;28;20081;-57
2022/12/24 04:10:11;;;;;;;36.92;16.67;;;;;;;0.75;100.00;96780.47;5007658;28;20054;-55
2022/12/24 04:12:38;;;;;;;52.13;17.08;;;;;;;0.78;100.00;96792.63;5008108;28;20139;-56
2022/12/24 04:15:05;;;;;;;33.42;13.63;;;;;;;0.45;100.00;96788.63;5007782;28;20090;-59
2022/12/24 04:17:32;;;;;;;26.02;12.82;;;;;;;0.52;100.00;96795.22;5007646;28;20077;-55
2022/12/24 04:19:59;;;;;;;30.48;13.55;;;;;;;0.64;100.00;96798.19;5007411;28;20041;-56
2022/12/24 04:22:25;;;;;;;32.65;14.88;;;;;;;0.65;100.00;96810.69;5007729;28;20054;-60
2022/12/24 04:24:52;;;;;;;43.22;18.92;;;;;;;0.56;100.00;96812.56;5007220;28;20112;-59
2022/12/24 04:27:19;;;;;;;48.72;20.85;;;;;;;0.41;100.00;96793.88;5007318;28;20480;-56
2022/12/24 04:29:50;;;;;;;55.15;24.50;;;;;;;0.54;100.00;96798.44;5005700;28;20064;-59
2022/12/24 04:32:17;;;;;;;54.28;23.50;;;;;;;-2.38;100.00;96333.00;5007542;28;20058;-56
2022/12/24 04:34:44;;;;;;;55.15;23.63;;;;;;;0.52;100.00;96803.41;5007396;28;20155;-56
2022/12/24 04:37:10;;;;;;;63.63;29.63;;;;;;;0.16;100.00;96750.97;5007608;28;20776;-59
2022/12/24 04:39:37;;;;;;;62.03;29.85;;;;;;;0.07;100.00;96717.44;5007082;28;20104;-59
2022/12/24 04:42:03;;;;;;;67.95;29.90;;;;;;;0.69;100.00;96791.81;5006646;28;20500;-59
2022/12/24 04:44:30;;;;;;;66.15;33.60;;;;;;;0.67;100.00;96789.41;5007053;28;20523;-56
2022/12/24 04:46:56;;;;;;;64.15;32.25;;;;;;;0.69;100.00;96789.91;5006922;28;20062;-60
2022/12/24 04:49:23;;;;;;;53.42;27.02;;;;;;;0.78;100.00;96793.44;5006854;28;20487;-58
2022/12/24 04:51:50;;;;;;;46.85;24.05;;;;;;;0.69;100.00;96779.00;5006924;28;20151;-55
2022/12/24 04:54:16;;;;;;;70.93;38.38;;;;;;;0.81;100.00;96787.38;5006810;28;20084;-59
2022/12/24 04:56:43;;;;;;;41.25;21.73;;;;;;;0.80;100.00;96785.78;5006683;28;20371;-56
2022/12/24 04:59:10;;;;;;;38.65;20.08;;;;;;;0.77;100.00;96783.69;4993370;28;20049;-55
2022/12/24 05:01:36;;;;;;;39.08;19.77;;;;;;;0.93;100.00;96779.38;4985841;28;20077;-58
2022/12/24 05:04:05;;;;;;;55.40;25.63;;;;;;;1.03;100.00;96779.13;4987240;28;20058;-55
2022/12/24 05:06:33;;;;;;;52.65;24.88;;;;;;;0.61;100.00;96722.53;4986637;28;20483;-55
2022/12/24 05:09:00;;;;;;;48.22;23.00;;;;;;;1.09;100.00;96788.75;4987162;28;20082;-56
2022/12/24 05:11:27;;;;;;;55.72;25.27;;;;;;;0.94;100.00;96764.66;4985456;28;20072;-60
2022/12/24 05:13:53;;;;;;;69.70;29.00;;;;;;;1.04;100.00;96780.72;4987019;28;20050;-59
2022/12/24 05:16:21;;;;;;;66.93;32.05;;;;;;;1.05;100.00;96787.78;4986547;28;20042;-60
2022/12/24 05:18:49;;;;;;;69.63;32.95;;;;;;;0.64;100.00;96738.25;4986306;28;20054;-60
2022/12/24 05:21:19;;;;;;;71.20;31.95;;;;;;;0.97;100.00;96795.94;4985121;28;20525;-55
2022/12/24 05:26:37;;;;;;;65.72;29.35;;;;;;;1.00;100.00;96807.00;4986424;28;20104;-56
2022/12/24 05:29:06;;;;;;;63.17;29.00;;;;;;;0.88;100.00;96815.00;4986654;28;20054;-55
2022/12/24 05:31:33;;;;;;;79.53;38.95;;;;;;;0.28;100.00;96729.44;4986434;28;20144;-59
2022/12/24 05:34:02;;;;;;;77.90;34.78;;;;;;;0.73;100.00;96826.28;4986482;28;20568;-60
2022/12/24 05:36:29;;;;;;;111.97;36.00;;;;;;;0.76;100.00;96812.03;4984995;28;20450;-59
2022/12/24 05:38:56;;;;;;;61.30;22.88;;;;;;;0.76;100.00;96817.47;4986683;28;20054;-56
2022/12/24 05:41:23;;;;;;;53.10;21.35;;;;;;;0.72;100.00;96816.53;4985837;28;20058;-55
2022/12/24 05:43:50;;;;;;;79.93;34.88;;;;;;;0.71;100.00;96853.03;4986416;28;20471;-55
2022/12/24 05:46:19;;;;;;;69.07;29.90;;;;;;;0.77;100.00;96827.28;4984702;28;20164;-55
2022/12/24 05:48:47;;;;;;;67.40;28.60;;;;;;;0.85;100.00;96847.53;4986318;28;20093;-55
2022/12/24 05:51:18;;;;;;;67.88;27.85;;;;;;;0.85;100.00;96820.28;4986189;28;20057;-55
2022/12/24 05:53:46;;;;;;;49.47;20.70;;;;;;;0.83;100.00;96815.13;4986157;28;20054;-57
2022/12/24 05:56:23;;;;;;;52.63;20.20;;;;;;;0.78;100.00;96793.44;4985790;28;20054;-55
2022/12/24 05:58:51;;;;;;;48.13;19.75;;;;;;;0.95;100.00;96804.44;4996832;28;20057;-60
2022/12/24 06:01:18;;;;;;;39.35;17.17;;;;;;;0.93;100.00;96811.31;5005395;28;20108;-55
2022/12/24 06:03:45;;;;;;;48.30;19.00;;;;;;;0.99;100.00;96810.88;5005251;28;20058;-60
2022/12/24 06:06:16;;;;;;;54.92;22.02;;;;;;;0.59;100.00;96762.09;5005051;28;20045;-54
2022/12/24 06:08:43;;;;;;;63.83;27.50;;;;;;;1.11;100.00;96823.88;5005500;28;20479;-59
2022/12/24 06:11:12;;;;;;;52.22;22.90;;;;;;;1.18;100.00;96822.34;5004959;28;20050;-56
2022/12/24 06:13:40;;;;;;;70.75;30.17;;;;;;;1.19;100.00;96837.56;5005271;28;20103;-55
2022/12/24 06:16:09;;;;;;;65.60;30.35;;;;;;;1.14;100.00;96802.25;5004739;28;20057;-57
2022/12/24 06:18:36;;;;;;;55.03;26.67;;;;;;;0.82;100.00;96756.25;5005521;28;20050;-55
2022/12/24 06:21:04;;;;;;;42.92;21.70;;;;;;;1.20;100.00;96824.75;5003592;28;20049;-57
2022/12/24 06:23:34;;;;;;;45.78;23.50;;;;;;;1.24;100.00;96822.97;5005063;28;20588;-54
2022/12/24 06:26:02;;;;;;;29.25;15.88;;;;;;;1.22;100.00;96823.31;5004851;28;20169;-55
2022/12/24 06:28:31;;;;;;;50.55;24.15;;;;;;;1.28;100.00;96813.06;5005111;28;20054;-55
2022/12/24 06:30:59;;;;;;;60.83;32.03;;;;;;;1.40;100.00;96810.50;5003591;28;20487;-59
2022/12/24 06:33:31;;;;;;;100.63;44.65;;;;;;;1.48;100.00;96801.56;5004279;28;20050;-55
2022/12/24 06:35:57;;;;;;;92.28;40.30;;;;;;;1.58;100.00;96796.59;5005045;28;20046;-54
2022/12/24 06:38:24;;;;;;;86.70;36.47;;;;;;;1.73;100.00;96789.03;5005133;28;20084;-58
2022/12/24 06:40:51;;;;;;;81.15;36.33;;;;;;;1.90;100.00;96802.72;5004496;28;20123;-54
2022/12/24 06:43:18;;;;;;;69.90;33.13;;;;;;;2.07;100.00;96808.97;5004899;28;20128;-59
2022/12/24 06:45:46;;;;;;;52.45;24.55;;;;;;;1.86;100.00;96797.09;5004395;28;20091;-59
2022/12/24 06:48:13;;;;;;;72.40;32.92;;;;;;;2.21;100.00;96795.16;5004570;28;20571;-59
2022/12/24 06:50:41;;;;;;;70.05;34.50;;;;;;;1.68;100.00;96674.56;5004533;28;20058;-54
2022/12/24 06:53:09;;;;;;;81.90;40.00;;;;;;;1.81;100.00;96668.13;5004723;28;20054;-55
2022/12/24 06:55:35;;;;;;;53.00;25.73;;;;;;;2.36;100.00;96811.06;5004615;28;20132;-58
2022/12/24 06:58:03;;;;;;;32.17;14.70;;;;;;;1.79;100.00;96809.63;5000588;28;20050;-59
2022/12/24 07:00:29;;;;;;;29.40;13.32;;;;;;;1.33;100.00;96744.69;4983389;28;20050;-54
2022/12/24 07:02:56;;;;;;;29.45;15.82;;;;;;;2.20;100.00;96813.47;4983479;28;20062;-59
2022/12/24 07:05:23;;;;;;;30.17;15.07;;;;;;;2.52;100.00;96798.50;4983284;28;20061;-59
2022/12/24 07:07:49;;;;;;;72.60;31.98;;;;;;;2.68;100.00;96819.53;4985216;28;20073;-58
2022/12/24 07:10:18;;;;;;;77.43;31.40;;;;;;;2.63;100.00;96766.94;4984609;28;20089;-54
2022/12/24 07:12:45;;;;;;;64.38;30.42;;;;;;;2.68;100.00;96747.63;4984842;28;20093;-54
2022/12/24 07:15:12;;;;;;;80.13;38.88;;;;;;;3.46;100.00;96823.59;4984931;28;20054;-54
2022/12/24 07:17:38;;;;;;;78.13;42.28;;;;;;;3.58;100.00;96799.03;4983539;28;20328;-55
2022/12/24 07:20:07;;;;;;;125.03;53.28;;;;;;;3.90;100.00;96812.03;4984596;28;20418;-55
2022/12/24 07:22:34;;;;;;;52.92;25.95;;;;;;;4.12;98.04;96814.44;4984895;28;20058;-58
2022/12/24 07:25:01;;;;;;;70.70;36.75;;;;;;;4.16;96.76;96815.38;4984141;28;20093;-59
2022/12/24 07:27:27;;;;;;;38.72;22.40;;;;;;;4.36;95.36;96825.50;4984283;28;20054;-56
2022/12/24 07:29:54;;;;;;;34.25;19.85;;;;;;;2.26;92.42;96450.75;4984093;28;20488;-69
2022/12/24 07:32:20;;;;;;;42.92;25.95;;;;;;;4.82;93.64;96826.41;4996768;28;20050;-61
2022/12/24 07:34:47;;;;;;;44.83;29.38;;;;;;;4.52;93.85;96812.00;5002806;28;20476;-60
2022/12/24 07:37:15;;;;;;;48.30;27.67;;;;;;;5.33;93.59;96828.53;4994381;28;20545;-57
2022/12/24 07:39:41;;;;;;;72.32;42.83;;;;;;;5.56;92.20;96818.72;4998880;28;20050;-56
2022/12/24 07:42:08;;;;;;;54.47;34.40;;;;;;;5.55;87.66;96825.34;5002940;28;20066;-57
2022/12/24 07:44:34;;;;;;;51.40;31.17;;;;;;;5.86;86.19;96822.88;4995248;28;20086;-54
2022/12/24 07:47:01;;;;;;;60.30;36.42;;;;;;;5.93;85.89;96823.06;4984969;28;20089;-54
2022/12/24 07:49:28;;;;;;;76.10;42.92;;;;;;;6.17;86.55;96820.28;4984111;28;20536;-60
2022/12/24 07:51:55;;;;;;;62.47;37.47;;;;;;;5.41;84.84;96737.00;4984957;28;20157;-59
2022/12/24 07:54:22;;;;;;;44.70;33.03;;;;;;;6.10;85.11;96767.84;4983698;28;20057;-57
2022/12/24 07:56:48;;;;;;;31.75;23.65;;;;;;;6.27;84.55;96764.81;4984063;28;20061;-56
2022/12/24 07:59:15;;;;;;;32.00;21.38;;;;;;;6.58;85.63;96762.13;5003513;28;20050;-55
2022/12/24 08:01:42;;;;;;;54.85;28.35;;;;;;;7.27;85.20;96806.47;4994170;28;20050;-56
2022/12/24 08:04:08;;;;;;;32.03;22.38;;;;;;;7.58;83.46;96806.50;4985090;28;20136;-58
2022/12/24 08:06:35;;;;;;;52.33;31.00;;;;;;;7.91;82.15;96808.03;4983867;28;20057;-56
2022/12/24 08:09:02;;;;;;;47.88;29.73;;;;;;;7.87;78.32;96763.03;4982290;28;20086;-56
2022/12/24 08:11:29;;;;;;;44.25;26.35;;;;;;;8.25;78.00;96807.28;5001814;28;20081;-60
2022/12/24 08:13:56;;;;;;;53.00;28.05;;;;;;;8.28;76.64;96767.91;5006480;28;20108;-60
2022/12/24 08:16:23;;;;;;;49.35;27.10;;;;;;;8.22;76.25;96750.81;5000591;28;20123;-57
2022/12/24 08:18:49;;;;;;;48.72;25.80;;;;;;;8.65;75.56;96793.91;4990247;28;20054;-59
2022/12/24 08:21:16;;;;;;;34.78;19.52;;;;;;;8.83;75.44;96812.47;4986802;28;20057;-61
2022/12/24 08:23:43;;;;;;;34.00;18.73;;;;;;;8.82;75.49;96819.13;4987143;28;20443;-55
2022/12/24 08:26:11;;;;;;;32.17;20.55;;;;;;;8.43;75.97;96747.72;4987036;28;20078;-60
2022/12/24 08:28:37;;;;;;;44.28;23.60;;;;;;;8.97;76.13;96798.91;4986879;28;20054;-58
2022/12/24 08:31:04;;;;;;;43.20;24.83;;;;;;;8.90;75.58;96795.19;4985577;28;20049;-61
2022/12/24 08:33:31;;;;;;;42.78;26.90;;;;;;;8.91;75.34;96805.09;4986919;28;20050;-59
2022/12/24 08:36:00;;;;;;;50.53;28.10;;;;;;;8.98;75.67;96821.81;4994488;28;20053;-56
2022/12/24 08:38:27;;;;;;;42.90;24.75;;;;;;;8.97;75.66;96811.91;4988059;28;20088;-59
2022/12/24 08:40:54;;;;;;;43.08;24.67;;;;;;;8.60;75.82;96763.88;4986266;28;20046;-55
2022/12/24 08:43:21;;;;;;;36.95;23.75;;;;;;;8.99;75.92;96804.84;4985095;28;20058;-62
2022/12/24 08:45:48;;;;;;;33.00;19.75;;;;;;;9.02;76.85;96800.59;4983357;28;20061;-57
2022/12/24 08:48:16;;;;;;;336.30;132.32;;;;;;;9.10;76.20;96799.56;4984845;28;20480;-61
2022/12/24 08:50:43;;;;;;;344.38;136.65;;;;;;;9.14;76.37;96784.63;4985994;28;20050;-61
2022/12/24 08:53:12;;;;;;;489.05;220.50;;;;;;;9.53;75.48;96799.13;4984973;28;20452;-59
2022/12/24 08:55:39;;;;;;;188.05;80.13;;;;;;;9.00;74.49;96660.06;4986632;28;20104;-60
2022/12/24 08:58:05;;;;;;;58.65;32.83;;;;;;;9.97;73.39;96767.06;4994458;28;20058;-62
2022/12/24 09:00:32;;;;;;;92.78;55.28;;;;;;;10.39;73.04;96784.28;5000625;28;20058;-58
2022/12/24 09:02:59;;;;;;;46.72;29.88;;;;;;;10.43;72.00;96743.56;4997892;28;20055;-54
2022/12/24 09:05:26;;;;;;;28.92;20.17;;;;;;;11.01;70.52;96774.34;4987520;28;20054;-57
2022/12/24 09:07:52;;;;;;;35.75;22.80;;;;;;;11.26;69.20;96777.38;5000969;28;20088;-55
2022/12/24 09:10:20;;;;;;;30.10;21.77;;;;;;;11.25;69.08;96698.16;4993171;28;20124;-57
2022/12/24 09:12:46;;;;;;;23.90;15.02;;;;;;;11.19;67.95;96677.50;5001102;28;20046;-59
2022/12/24 09:15:13;;;;;;;21.73;14.25;;;;;;;11.81;67.79;96776.31;5004487;28;20108;-56
2022/12/24 09:17:40;;;;;;;25.85;15.77;;;;;;;11.68;67.58;96791.69;4997426;28;20112;-56
2022/12/24 09:20:08;;;;;;;23.98;15.75;;;;;;;11.07;68.49;96700.75;4988815;28;20124;-57
2022/12/24 09:22:36;;;;;;;19.70;13.00;;;;;;;11.48;68.24;96790.25;5008044;28;20078;-59
2022/12/24 09:25:05;;;;;;;64.65;40.60;;;;;;;11.41;68.53;96787.44;4993343;28;20058;-57
2022/12/24 09:27:31;;;;;;;34.17;22.85;;;;;;;11.46;69.09;96781.53;4995447;28;20057;-55
2022/12/24 09:29:58;;;;;;;45.40;27.17;;;;;;;11.42;69.08;96764.88;4989177;28;20086;-56
2022/12/24 09:32:25;;;;;;;44.78;28.55;;;;;;;11.19;68.83;96710.78;4993318;28;20045;-56
2022/12/24 09:34:52;;;;;;;50.92;31.58;;;;;;;11.49;68.92;96758.59;5002254;28;20100;-56
2022/12/24 09:37:19;;;;;;;60.30;33.30;;;;;;;11.48;69.47;96768.06;5003503;28;20058;-60
2022/12/24 09:39:46;;;;;;;49.30;30.75;;;;;;;11.51;68.29;96764.53;5003123;28;20081;-58
2022/12/24 09:42:31;;;;;;;32.30;21.55;;;;;;;11.66;68.23;96771.84;4961867;28;20519;-57
2022/12/24 09:45:18;;;;;;;34.92;21.75;;;;;;;11.85;67.51;96754.94;4996007;28;20057;-54
2022/12/24 09:48:16;;;;;;;46.60;28.42;;;;;;;12.10;65.57;96762.25;4991174;28;20053;-59
2022/12/24 09:50:55;;;;;;;39.03;23.10;;;;;;;12.19;64.88;96759.13;4974639;28;20061;-57
2022/12/24 09:53:31;;;;;;;37.35;22.95;;;;;;;12.37;64.77;96754.47;4984671;28;20054;-56
2022/12/24 09:56:00;;;;;;;39.80;26.95;;;;;;;10.30;63.42;96409.25;4995210;28;20081;-61
2022/12/24 09:58:38;;;;;;;41.78;27.27;;;;;;;12.58;62.18;96760.16;4987193;28;20426;-58
2022/12/24 10:01:05;;;;;;;27.23;17.92;;;;;;;12.65;62.25;96760.16;5004266;28;20603;-61
2022/12/24 10:03:32;;;;;;;14.65;9.30;;;;;;;11.90;62.82;96701.84;5004500;28;20064;-57
2022/12/24 10:06:22;;;;;;;14.32;10.10;;;;;;;11.43;65.52;96755.34;5002575;28;20058;-61
2022/12/24 10:09:13;;;;;;;22.08;14.02;;;;;;;12.02;64.88;96759.81;5004026;28;20106;-56
2022/12/24 10:12:07;;;;;;;13.93;9.93;;;;;;;12.25;63.56;96757.56;5000069;28;20057;-56
2022/12/24 10:14:39;;;;;;;20.75;14.30;;;;;;;12.41;63.26;96744.16;5001791;28;20508;-56
2022/12/24 10:17:28;;;;;;;31.27;18.42;;;;;;;12.60;62.25;96752.19;4998721;28;20501;-57
2022/12/24 10:20:10;;;;;;;604.78;254.75;;;;;;;12.70;61.65;96751.47;5004280;28;20077;-57
2022/12/24 10:22:59;;;;;;;269.58;94.45;;;;;;;12.77;61.75;96747.91;5004327;28;20069;-56
2022/12/24 10:26:02;;;;;;;115.70;51.63;;;;;;;12.75;61.51;96741.94;5003503;28;20058;-61
2022/12/24 10:28:51;;;;;;;40.30;22.33;;;;;;;13.09;60.46;96741.28;5003043;28;20507;-57
2022/12/24 10:31:26;;;;;;;34.90;21.25;;;;;;;13.24;59.77;96730.97;4984336;28;20124;-61
2022/12/24 10:33:59;;;;;;;18.98;12.40;;;;;;;12.49;58.75;96615.22;4984385;28;20054;-61
2022/12/24 10:36:28;;;;;;;25.50;15.02;;;;;;;13.31;59.74;96726.22;4984260;28;20501;-59
2022/12/24 10:38:56;;;;;;;21.27;12.02;;;;;;;13.47;58.62;96748.91;4984796;28;20061;-56
2022/12/24 10:41:25;;;;;;;31.83;20.95;;;;;;;13.80;58.61;96727.44;4983316;28;20054;-61
2022/12/24 10:43:53;;;;;;;15.63;10.90;;;;;;;11.79;57.24;96379.13;4982689;28;20136;-56
2022/12/24 10:46:37;;;;;;;18.60;11.27;;;;;;;13.50;56.76;96656.28;4986566;28;20054;-60
2022/12/24 10:49:06;;;;;;;19.60;11.60;;;;;;;14.11;57.66;96718.25;5003809;28;20056;-57
2022/12/24 10:51:54;;;;;;;17.55;11.65;;;;;;;14.25;55.54;96701.50;5002072;28;20484;-61
2022/12/24 10:54:24;;;;;;;27.83;18.55;;;;;;;13.89;56.43;96672.94;5002515;28;20146;-61
2022/12/24 10:57:01;;;;;;;30.77;18.90;;;;;;;14.38;56.38;96722.19;4995875;28;20050;-58
2022/12/24 10:59:29;;;;;;;13.93;7.18;;;;;;;13.97;55.96;96693.19;4999207;28;20134;-62
2022/12/24 11:01:57;;;;;;;10.48;7.15;;;;;;;13.14;55.80;96576.81;5001272;28;20052;-58
2022/12/24 11:04:27;;;;;;;10.95;6.88;;;;;;;14.15;55.11;96719.00;4985427;28;20145;-61
2022/12/24 11:07:03;;;;;;;9.65;6.68;;;;;;;13.54;55.96;96684.91;4983992;28;20054;-59
2022/12/24 11:09:35;;;;;;;8.90;6.68;;;;;;;13.89;55.97;96716.69;4984027;28;20058;-57
2022/12/24 11:12:05;;;;;;;7.47;6.68;;;;;;;13.28;57.67;96754.81;4984346;28;20117;-57
2022/12/24 11:14:38;;;;;;;10.65;6.97;;;;;;;12.97;59.01;96724.94;4982551;28;20054;-60
2022/12/24 11:17:06;;;;;;;12.68;7.25;;;;;;;12.63;61.08;96723.63;4998745;28;20149;-60
2022/12/24 11:19:38;;;;;;;12.35;8.32;;;;;;;12.80;60.21;96724.88;4983874;28;20947;-60
2022/12/24 11:22:15;;;;;;;12.40;8.20;;;;;;;12.23;61.27;96682.19;4982210;28;20128;-60
2022/12/24 11:24:43;;;;;;;12.90;8.15;;;;;;;12.78;60.82;96730.03;4983726;28;20086;-56
2022/12/24 11:27:44;;;;;;;13.45;9.82;;;;;;;12.65;61.39;96720.44;4983905;28;20054;-56
2022/12/24 11:30:14;;;;;;;21.48;11.80;;;;;;;12.85;61.39;96719.72;4982683;28;20058;-60
2022/12/24 11:32:49;;;;;;;12.32;7.60;;;;;;;13.04;60.21;96702.72;4983948;28;20054;-56
2022/12/24 11:35:22;;;;;;;12.05;7.35;;;;;;;13.39;58.58;96715.88;4991359;28;20509;-56
2022/12/24 11:38:16;;;;;;;15.15;9.63;;;;;;;13.74;58.56;96709.56;4995266;28;20643;-60
2022/12/24 11:40:45;;;;;;;15.80;10.32;;;;;;;14.05;58.07;96719.84;4983191;28;20085;-61